Time;durP1;ratioP1;P1;durP2;ratioP2;P2;SDS_P1;SDS_P2;PMS_P1;PMS_P2;Temp;Humidity;BMP_temperature;BMP_pressure;BME280_temperature;BME280_humidity;BME280_pressure;Samples;Min_cycle;Max_cycle;Signal;HPM_P1;HPM_P2
2022/05/25 00:01:05;;;;;;;4.83;1.40;;;12.60;99.90;;;;;;5094221;28;20187;-85
2022/05/25 00:03:33;;;;;;;1.80;1.30;;;12.60;99.90;;;;;;5094077;28;20630;-85
2022/05/25 00:06:04;;;;;;;2.33;1.33;;;12.40;99.90;;;;;;5094622;28;20224;-85
2022/05/25 00:08:32;;;;;;;3.30;1.40;;;12.30;99.90;;;;;;5094398;28;20194;-84
2022/05/25 00:11:00;;;;;;;2.70;1.40;;;12.10;99.90;;;;;;5094338;28;20214;-85
2022/05/25 00:13:29;;;;;;;5.13;1.80;;;12.00;99.90;;;;;;5093897;28;20702;-85
2022/05/25 00:15:59;;;;;;;3.13;1.60;;;12.00;99.90;;;;;;5094303;28;20281;-85
2022/05/25 00:18:31;;;;;;;7.50;1.43;;;12.00;99.90;;;;;;5094009;28;20206;-85
2022/05/25 00:20:58;;;;;;;4.53;1.70;;;12.00;99.90;;;;;;5094248;28;20548;-85
2022/05/25 00:23:30;;;;;;;6.30;1.77;;;12.00;99.90;;;;;;5093655;28;20199;-85
2022/05/25 00:25:58;;;;;;;2.03;1.73;;;11.90;99.90;;;;;;5093909;28;20554;-85
2022/05/25 00:28:25;;;;;;;8.80;2.70;;;12.00;99.90;;;;;;5093813;28;20201;-85
2022/05/25 00:30:58;;;;;;;6.07;1.90;;;11.90;99.90;;;;;;5093974;28;20293;-85
2022/05/25 00:33:26;;;;;;;2.93;1.60;;;11.60;99.90;;;;;;5094104;28;20216;-84
2022/05/25 00:35:57;;;;;;;6.40;1.77;;;11.60;99.90;;;;;;5093564;28;20201;-84
2022/05/25 00:38:30;;;;;;;3.60;1.60;;;11.60;99.90;;;;;;5093948;28;20205;-85
2022/05/25 00:41:00;;;;;;;3.50;2.37;;;11.60;99.90;;;;;;5094002;28;20193;-85
2022/05/25 00:43:28;;;;;;;2.13;1.83;;;11.70;99.90;;;;;;5094115;28;20552;-84
2022/05/25 00:45:59;;;;;;;2.30;1.77;;;11.40;99.90;;;;;;5093888;28;20646;-85
2022/05/25 00:48:32;;;;;;;2.67;1.60;;;11.40;99.90;;;;;;5093783;28;20209;-85
2022/05/25 00:51:15;;;;;;;7.00;2.27;;;11.40;99.90;;;;;;5093983;28;20194;-85
2022/05/25 00:53:45;;;;;;;7.00;2.05;;;11.40;99.90;;;;;;5092874;28;20434;-87
2022/05/25 00:56:18;;;;;;;4.23;2.00;;;11.30;99.90;;;;;;5093397;28;20541;-84
2022/05/25 00:58:53;;;;;;;3.00;1.87;;;11.50;99.90;;;;;;5093801;28;20555;-85
2022/05/25 01:01:20;;;;;;;3.43;1.67;;;11.40;99.90;;;;;;5093731;28;20185;-85
2022/05/25 01:03:48;;;;;;;2.93;1.70;;;11.40;99.90;;;;;;5093820;28;20206;-85
2022/05/25 01:06:25;;;;;;;5.43;1.70;;;11.40;99.90;;;;;;5093554;28;20225;-86
2022/05/25 01:09:03;;;;;;;7.67;2.13;;;11.40;99.90;;;;;;5093356;28;20208;-85
2022/05/25 01:11:44;;;;;;;6.97;2.10;;;11.40;99.90;;;;;;5093392;28;20204;-85
2022/05/25 01:14:38;;;;;;;3.07;2.10;;;11.40;99.90;;;;;;5093700;28;20217;-85
2022/05/25 01:17:15;;;;;;;4.47;2.33;;;11.40;99.90;;;;;;5090113;28;20453;-85
2022/05/25 01:20:03;;;;;;;6.93;2.50;;;11.20;99.90;;;;;;5093704;28;20193;-85
2022/05/25 01:23:08;;;;;;;5.07;2.00;;;11.30;99.90;;;;;;5093287;28;20598;-85
2022/05/25 01:26:12;;;;;;;2.23;1.57;;;11.20;99.90;;;;;;5071111;28;20208;-85
2022/05/25 01:29:00;;;;;;;3.37;1.83;;;11.20;99.90;;;;;;5093390;28;20197;-85
2022/05/25 01:31:41;;;;;;;4.83;1.80;;;11.10;99.90;;;;;;5093471;28;20215;-86
2022/05/25 01:34:21;;;;;;;4.07;1.93;;;11.10;99.90;;;;;;5093750;28;20209;-86
2022/05/25 01:36:57;;;;;;;5.93;2.10;;;11.00;99.90;;;;;;5097123;28;20228;-85
2022/05/25 01:39:30;;;;;;;6.35;2.60;;;11.00;99.90;;;;;;5096063;28;20438;-85
2022/05/25 01:42:04;;;;;;;2.80;2.10;;;11.10;99.90;;;;;;5097299;28;20225;-86
2022/05/25 01:44:39;;;;;;;3.03;2.13;;;11.00;99.90;;;;;;5097238;28;20193;-86
2022/05/25 01:47:10;;;;;;;7.43;2.30;;;10.90;99.90;;;;;;5097204;28;20686;-86
2022/05/25 01:49:46;;;;;;;4.73;2.50;;;11.00;99.90;;;;;;5097399;28;20200;-86
2022/05/25 01:52:17;;;;;;;3.53;2.37;;;11.00;99.90;;;;;;5097138;28;20655;-87
2022/05/25 01:54:51;;;;;;;6.80;2.77;;;11.00;99.90;;;;;;5096550;28;20200;-85
2022/05/25 01:57:22;;;;;;;3.43;2.20;;;10.90;99.90;;;;;;5096715;28;20282;-86
2022/05/25 01:59:49;;;;;;;4.53;2.57;;;10.90;99.90;;;;;;5096817;28;20205;-85
2022/05/25 02:05:07;;;;;;;7.00;2.70;;;10.90;99.90;;;;;;5096687;28;20271;-86
2022/05/25 02:07:48;;;;;;;3.00;2.70;;;10.90;99.90;;;;;;5097221;28;20197;-86
2022/05/25 02:10:33;;;;;;;7.60;2.77;;;10.90;99.90;;;;;;5096730;28;20212;-85
2022/05/25 02:17:02;;;;;;;7.47;2.80;;;10.80;99.90;;;;;;5095927;28;20211;-86
2022/05/25 02:19:37;;;;;;;8.37;3.00;;;10.80;99.90;;;;;;5088298;22;20655;-78
2022/05/25 02:22:09;;;;;;;6.27;3.33;;;10.70;99.90;;;;;;5057884;28;20195;-77
2022/05/25 02:24:41;;;;;;;8.60;3.58;;;10.70;99.90;;;;;;5066457;28;20429;-77
2022/05/25 02:27:13;;;;;;;7.13;3.40;;;10.70;99.90;;;;;;5066291;28;20665;-77
2022/05/25 02:29:46;;;;;;;6.10;3.07;;;10.90;99.90;;;;;;5064534;28;20225;-77
2022/05/25 02:32:17;;;;;;;7.40;3.23;;;10.70;99.90;;;;;;5065885;28;20197;-77
2022/05/25 02:34:50;;;;;;;10.87;3.73;;;10.60;99.90;;;;;;5065077;28;20220;-78
2022/05/25 02:37:19;;;;;;;7.27;3.47;;;10.60;99.90;;;;;;5064688;28;20222;-78
2022/05/25 02:39:50;;;;;;;7.10;3.80;;;10.60;99.90;;;;;;5064256;28;20213;-78
2022/05/25 02:42:17;;;;;;;6.50;3.40;;;10.60;99.90;;;;;;5064777;28;20206;-79
2022/05/25 02:44:45;;;;;;;5.90;3.23;;;10.70;99.90;;;;;;5063760;28;20206;-79
2022/05/25 02:47:12;;;;;;;5.85;3.60;;;10.60;99.90;;;;;;5062772;28;20099;-79
2022/05/25 02:49:39;;;;;;;7.63;3.27;;;10.50;99.90;;;;;;5062735;28;20669;-78
2022/05/25 02:52:10;;;;;;;4.40;3.60;;;10.40;99.90;;;;;;5059304;28;20209;-78
2022/05/25 02:54:38;;;;;;;7.70;3.30;;;10.40;99.90;;;;;;5057407;28;20203;-78
2022/05/25 02:57:06;;;;;;;6.07;3.77;;;10.40;99.90;;;;;;5063453;28;20252;-76
2022/05/25 02:59:33;;;;;;;7.07;4.00;;;10.50;99.90;;;;;;5063238;28;20240;-78
2022/05/25 03:02:04;;;;;;;3.93;3.50;;;10.50;99.90;;;;;;5062251;28;20661;-78
2022/05/25 03:04:31;;;;;;;7.30;3.90;;;10.50;99.90;;;;;;5064320;28;20564;-75
2022/05/25 03:06:58;;;;;;;6.23;3.10;;;10.50;99.90;;;;;;5062971;28;20687;-76
2022/05/25 03:09:36;;;;;;;7.10;4.20;;;10.50;99.90;;;;;;5063298;28;20207;-76
2022/05/25 03:12:06;;;;;;;5.30;3.73;;;10.50;99.90;;;;;;5061811;28;20206;-78
2022/05/25 03:14:34;;;;;;;10.07;3.70;;;10.40;99.90;;;;;;5059210;28;20648;-76
2022/05/25 03:17:08;;;;;;;6.20;3.37;;;10.50;99.90;;;;;;5059549;28;20684;-76
2022/05/25 03:19:35;;;;;;;7.77;3.80;;;10.50;99.90;;;;;;5060505;28;20226;-79
2022/05/25 03:22:02;;;;;;;7.73;3.80;;;10.50;99.90;;;;;;5061939;28;20217;-76
2022/05/25 03:24:30;;;;;;;6.70;3.73;;;10.50;99.90;;;;;;5061951;28;20210;-76
2022/05/25 03:26:58;;;;;;;6.80;3.77;;;10.60;99.90;;;;;;5061242;28;20650;-75
2022/05/25 03:29:25;;;;;;;5.30;3.67;;;10.60;99.90;;;;;;5062168;28;20198;-76
2022/05/25 03:31:52;;;;;;;7.53;3.97;;;10.60;99.90;;;;;;5061461;28;20291;-76
2022/05/25 03:34:26;;;;;;;10.53;3.93;;;10.40;99.90;;;;;;5065485;28;20553;-78
2022/05/25 03:36:54;;;;;;;6.93;3.57;;;10.40;99.90;;;;;;5062127;28;20218;-78
2022/05/25 03:39:28;;;;;;;6.70;3.80;;;10.50;99.90;;;;;;5111428;22;20236;-86
2022/05/25 03:42:14;;;;;;;4.23;3.83;;;10.60;99.90;;;;;;5092105;28;20280;-85
2022/05/25 03:44:44;;;;;;;6.73;3.50;;;10.40;99.90;;;;;;5092002;28;20217;-86
2022/05/25 03:47:14;;;;;;;5.43;4.13;;;10.50;99.90;;;;;;5093089;28;20218;-86
2022/05/25 03:49:46;;;;;;;5.87;3.70;;;10.50;99.90;;;;;;5092021;28;20205;-86
2022/05/25 03:52:20;;;;;;;5.10;4.23;;;10.60;99.90;;;;;;5092938;28;20210;-85
2022/05/25 03:54:47;;;;;;;5.63;3.67;;;10.60;99.90;;;;;;5077906;28;20206;-77
2022/05/25 03:57:15;;;;;;;4.37;3.70;;;10.50;99.90;;;;;;5075942;28;20233;-77
2022/05/25 03:59:41;;;;;;;5.90;3.90;;;10.50;99.90;;;;;;5074561;28;20202;-76
2022/05/25 04:02:10;;;;;;;5.60;3.60;;;10.40;99.90;;;;;;5074331;28;20660;-79
2022/05/25 04:04:37;;;;;;;6.00;3.60;;;10.40;99.90;;;;;;5074982;28;20554;-79
2022/05/25 04:07:04;;;;;;;7.37;3.80;;;10.40;99.90;;;;;;5075702;28;20582;-78
2022/05/25 04:09:31;;;;;;;7.90;4.30;;;10.30;99.90;;;;;;5074484;28;20198;-77
2022/05/25 04:11:57;;;;;;;7.60;3.90;;;10.20;99.90;;;;;;5076073;28;20220;-78
2022/05/25 04:14:26;;;;;;;6.87;3.77;;;10.30;99.90;;;;;;5077436;28;20209;-79
2022/05/25 04:16:54;;;;;;;6.90;3.87;;;10.30;99.90;;;;;;5077162;28;20627;-78
2022/05/25 04:19:20;;;;;;;8.80;3.67;;;10.30;99.90;;;;;;5077443;28;20238;-78
2022/05/25 04:21:50;;;;;;;8.43;3.77;;;10.30;99.90;;;;;;5079474;28;20202;-84
2022/05/25 04:24:16;;;;;;;8.33;3.70;;;10.30;99.90;;;;;;5082589;28;20198;-78
2022/05/25 04:26:44;;;;;;;7.40;3.43;;;10.40;99.90;;;;;;5076305;28;20194;-79
2022/05/25 04:29:11;;;;;;;7.47;3.80;;;10.50;99.90;;;;;;5075866;28;20194;-78
2022/05/25 04:31:40;;;;;;;4.93;3.80;;;10.50;99.90;;;;;;5077944;28;20201;-79
2022/05/25 04:34:06;;;;;;;5.50;4.03;;;10.40;99.90;;;;;;5075705;28;20186;-79
2022/05/25 04:36:33;;;;;;;3.93;3.37;;;10.40;99.90;;;;;;5075831;28;20629;-78
2022/05/25 04:39:00;;;;;;;5.73;4.13;;;10.50;99.90;;;;;;5075597;28;20595;-78
2022/05/25 04:41:31;;;;;;;9.67;3.97;;;10.50;99.90;;;;;;5075959;28;20192;-79
2022/05/25 04:43:58;;;;;;;5.53;3.60;;;10.60;99.90;;;;;;5078046;28;20204;-78
2022/05/25 04:46:25;;;;;;;9.47;3.57;;;10.60;99.90;;;;;;5077658;28;20224;-78
2022/05/25 04:48:55;;;;;;;7.83;3.90;;;10.70;99.90;;;;;;5076441;28;20226;-77
2022/05/25 04:51:22;;;;;;;7.20;3.77;;;10.70;99.90;;;;;;5074456;28;20206;-78
2022/05/25 04:53:49;;;;;;;8.57;3.43;;;10.70;99.90;;;;;;5074292;28;20205;-78
2022/05/25 04:59:00;;;;;;;8.07;3.43;;;10.70;99.90;;;;;;5074363;28;20271;-78
2022/05/25 05:01:27;;;;;;;8.63;3.40;;;10.70;99.90;;;;;;5068654;28;20213;-78
2022/05/25 05:03:55;;;;;;;4.97;3.00;;;10.70;99.90;;;;;;5072495;28;20201;-78
2022/05/25 05:06:21;;;;;;;6.20;3.53;;;10.80;99.90;;;;;;5071608;28;20544;-78
2022/05/25 05:08:48;;;;;;;4.33;3.33;;;10.90;99.90;;;;;;5074407;28;20221;-78
2022/05/25 05:11:17;;;;;;;6.07;3.60;;;10.90;99.90;;;;;;5077851;28;20676;-78
2022/05/25 05:13:48;;;;;;;6.17;3.00;;;11.00;99.90;;;;;;5078131;28;20205;-78
2022/05/25 05:16:18;;;;;;;7.70;2.90;;;11.10;99.90;;;;;;5082674;28;20190;-80
2022/05/25 05:18:45;;;;;;;5.33;3.40;;;11.10;99.90;;;;;;5078799;28;20261;-78
2022/05/25 05:21:14;;;;;;;8.13;3.43;;;11.20;99.90;;;;;;5077698;28;20198;-78
2022/05/25 05:23:44;;;;;;;5.43;3.33;;;11.30;99.90;;;;;;5077655;28;20423;-78
2022/05/25 05:26:12;;;;;;;8.00;3.03;;;11.40;99.90;;;;;;5078201;28;20228;-78
2022/05/25 05:28:41;;;;;;;7.07;3.00;;;11.50;99.90;;;;;;5077062;28;20213;-78
2022/05/25 05:31:10;;;;;;;4.97;3.10;;;11.50;99.90;;;;;;5077658;28;20223;-80
2022/05/25 05:33:37;;;;;;;7.57;3.07;;;11.40;99.90;;;;;;5077188;28;20202;-78
2022/05/25 05:36:08;;;;;;;6.80;3.30;;;11.50;99.90;;;;;;5076874;28;20259;-78
2022/05/25 05:38:44;;;;;;;5.43;3.00;;;11.60;99.90;;;;;;5077474;28;20707;-78
2022/05/25 05:41:13;;;;;;;4.00;2.70;;;11.60;99.90;;;;;;5077730;28;20206;-78
2022/05/25 05:43:40;;;;;;;10.00;3.60;;;11.70;99.90;;;;;;5079569;28;20198;-78
2022/05/25 05:46:10;;;;;;;6.97;3.67;;;11.60;99.90;;;;;;5077982;28;20782;-78
2022/05/25 05:48:38;;;;;;;7.07;3.10;;;11.70;99.90;;;;;;5081918;28;20197;-78
2022/05/25 05:51:06;;;;;;;4.50;2.77;;;11.70;99.90;;;;;;5080321;28;20210;-78
2022/05/25 05:53:34;;;;;;;5.53;2.80;;;11.80;99.90;;;;;;5080437;28;20211;-78
2022/05/25 05:56:03;;;;;;;6.93;3.03;;;11.90;99.90;;;;;;5080761;28;20290;-78
2022/05/25 05:58:31;;;;;;;3.43;3.13;;;12.00;99.90;;;;;;5079802;28;20215;-78
2022/05/25 06:00:59;;;;;;;7.47;2.87;;;12.10;99.90;;;;;;5080049;28;20210;-78
2022/05/25 06:03:26;;;;;;;7.10;3.87;;;12.10;99.90;;;;;;5080536;28;20206;-78
2022/05/25 06:05:53;;;;;;;6.90;3.20;;;12.10;99.90;;;;;;5079366;28;20203;-77
2022/05/25 06:08:23;;;;;;;5.70;3.03;;;12.10;99.90;;;;;;5079165;28;20522;-77
2022/05/25 06:10:51;;;;;;;7.03;3.00;;;12.10;99.90;;;;;;5078984;28;20323;-78
2022/05/25 06:13:19;;;;;;;6.43;3.10;;;12.10;99.90;;;;;;5079809;28;20198;-78
2022/05/25 06:21:20;;;;;;;5.83;2.63;;;12.40;99.90;;;;;;5077911;28;20203;-77
2022/05/25 06:23:47;;;;;;;8.67;3.03;;;12.40;99.90;;;;;;5078656;28;20294;-77
2022/05/25 06:26:15;;;;;;;4.63;2.53;;;12.50;99.90;;;;;;5079206;28;20192;-77
2022/05/25 06:28:44;;;;;;;6.23;2.70;;;12.60;99.90;;;;;;5080849;28;20254;-77
2022/05/25 06:31:11;;;;;;;6.57;2.70;;;12.60;99.90;;;;;;5082313;28;20196;-77
2022/05/25 06:33:38;;;;;;;9.60;2.67;;;12.60;99.90;;;;;;5082548;28;20191;-78
2022/05/25 06:36:14;;;;;;;8.03;2.80;;;12.70;99.90;;;;;;5112993;28;20637;-86
2022/05/25 06:38:43;;;;;;;4.83;2.47;;;12.80;99.90;;;;;;5115330;28;20274;-85
2022/05/25 06:41:25;;;;;;;6.03;2.70;;;12.90;99.90;;;;;;5115804;28;20267;-86
2022/05/25 06:43:53;;;;;;;7.53;3.27;;;13.10;99.90;;;;;;5129152;22;20191;-86
2022/05/25 06:46:59;;;;;;;5.53;3.03;;;13.00;99.90;;;;;;5072825;28;20231;-85
2022/05/25 06:58:32;;;;;;;6.80;2.83;;;13.30;99.90;;;;;;5079292;28;20212;-87
2022/05/25 07:01:00;;;;;;;7.07;2.57;;;13.40;99.90;;;;;;5076685;28;20204;-85
2022/05/25 07:03:29;;;;;;;5.93;2.53;;;13.50;99.90;;;;;;5074453;28;20219;-86
2022/05/25 07:06:06;;;;;;;6.03;2.70;;;13.60;99.90;;;;;;5076116;28;20200;-86
2022/05/25 07:08:38;;;;;;;5.97;2.37;;;13.80;99.90;;;;;;5071664;28;20193;-87
2022/05/25 07:11:15;;;;;;;5.80;2.30;;;13.80;99.90;;;;;;5074905;28;20209;-86
2022/05/25 07:13:44;;;;;;;3.13;1.73;;;14.00;99.90;;;;;;5073841;28;20232;-86
2022/05/25 07:16:15;;;;;;;3.83;2.00;;;13.90;99.90;;;;;;5074216;28;20225;-86
2022/05/25 07:18:48;;;;;;;5.13;1.83;;;14.00;99.90;;;;;;5075772;28;20237;-86
2022/05/25 07:21:18;;;;;;;7.00;2.60;;;14.20;99.90;;;;;;5073166;28;20423;-86
2022/05/25 07:23:46;;;;;;;5.90;2.23;;;14.40;99.90;;;;;;5076028;28;20234;-87
2022/05/25 07:26:18;;;;;;;7.60;2.00;;;14.70;99.90;;;;;;5076578;28;20210;-86
2022/05/25 07:28:48;;;;;;;4.17;1.70;;;14.80;99.90;;;;;;5076445;28;20273;-86
2022/05/25 07:31:26;;;;;;;8.57;1.90;;;15.00;99.90;;;;;;5076116;28;20186;-85
2022/05/25 07:34:00;;;;;;;3.20;1.80;;;15.00;99.90;;;;;;5076077;28;20198;-85
2022/05/25 07:36:36;;;;;;;3.70;1.80;;;14.80;99.90;;;;;;5058176;28;20238;-87
2022/05/25 07:39:07;;;;;;;4.00;1.63;;;14.80;99.90;;;;;;5077452;28;20581;-86
2022/05/25 07:41:42;;;;;;;8.97;2.60;;;14.80;99.90;;;;;;5077195;28;20194;-86
2022/05/25 07:44:19;;;;;;;3.97;1.53;;;14.60;99.90;;;;;;5077591;28;20224;-87
2022/05/25 07:46:51;;;;;;;4.13;1.40;;;14.40;99.90;;;;;;5098973;22;20244;-89
2022/05/25 07:52:23;;;;;;;6.47;1.90;;;14.60;99.90;;;;;;5088293;28;20233;-88
2022/05/25 08:20:45;;;;;;;5.17;2.00;;;15.40;99.90;;;;;;5077341;28;20702;-96
2022/05/25 08:23:14;;;;;;;3.40;2.00;;;15.40;99.90;;;;;;5077276;28;20205;-95
2022/05/25 08:25:45;;;;;;;4.93;1.80;;;15.60;99.90;;;;;;5077382;28;20302;-96
2022/05/25 08:28:16;;;;;;;4.03;2.33;;;15.70;99.90;;;;;;5077983;28;20216;-96
2022/05/25 08:30:45;;;;;;;5.10;1.70;;;15.90;99.90;;;;;;5076858;28;20210;-95
2022/05/25 08:33:19;;;;;;;7.47;2.15;;;16.10;99.90;;;;;;5075619;28;20432;-95
2022/05/25 08:36:18;;;;;;;4.97;1.90;;;16.40;99.90;;;;;;5076981;28;20251;-95
2022/05/25 08:38:52;;;;;;;6.47;1.77;;;16.30;99.90;;;;;;5079665;28;20272;-95
2022/05/25 08:41:44;;;;;;;3.73;1.47;;;16.00;99.90;;;;;;5079221;28;20209;-96
2022/05/25 08:44:12;;;;;;;2.10;1.20;;;16.00;99.90;;;;;;5095215;28;20193;-90
2022/05/25 09:00:23;;;;;;;4.20;1.20;;;16.40;99.90;;;;;;5045509;28;20234;-96
2022/05/25 09:06:55;;;;;;;4.43;2.33;;;16.50;99.90;;;;;;5116244;22;20234;-96
2022/05/25 09:12:34;;;;;;;6.37;1.30;;;16.60;99.90;;;;;;5095903;28;20216;-96
2022/05/25 09:18:22;;;;;;;1.80;0.93;;;16.50;99.90;;;;;;5102013;28;20202;-96
2022/05/25 09:24:04;;;;;;;2.47;0.90;;;16.50;99.90;;;;;;5100463;28;20202;-95
2022/05/25 09:26:37;;;;;;;0.90;0.90;;;16.30;99.90;;;;;;5115366;28;20228;-96
2022/05/25 09:29:21;;;;;;;2.30;0.97;;;16.30;99.90;;;;;;5110418;28;20290;-94
2022/05/25 09:32:21;;;;;;;3.17;0.90;;;16.50;99.90;;;;;;5107243;28;20213;-95
2022/05/25 09:38:55;;;;;;;3.83;1.20;;;17.20;99.90;;;;;;5102758;28;20232;-95
2022/05/25 09:45:35;;;;;;;2.00;1.13;;;17.30;99.90;;;;;;5093827;28;20505;-93
2022/05/25 09:51:40;;;;;;;2.60;0.83;;;17.10;99.90;;;;;;5103433;28;20581;-96
2022/05/25 10:13:46;;;;;;;2.70;0.83;;;17.90;99.90;;;;;;6123003;22;1874870;-89
2022/05/25 10:16:27;;;;;;;2.27;0.90;;;17.70;99.90;;;;;;6141182;23;20223;-92
2022/05/25 10:18:57;;;;;;;2.10;0.80;;;17.70;99.90;;;;;;6137272;23;20226;-92
2022/05/25 10:21:53;;;;;;;2.83;0.80;;;17.60;99.90;;;;;;6142379;23;20231;-90
2022/05/25 10:24:50;;;;;;;3.50;0.93;;;17.50;99.90;;;;;;6141601;23;20187;-89
2022/05/25 10:27:25;;;;;;;2.30;0.93;;;17.70;99.90;;;;;;6134885;23;20176;-95
2022/05/25 10:38:36;;;;;;;2.77;0.80;;;18.20;99.90;;;;;;6083922;23;20176;-89
2022/05/25 10:41:37;;;;;;;0.70;0.70;;;18.20;99.90;;;;;;6081893;23;20208;-89
2022/05/25 10:44:08;;;;;;;1.73;0.93;;;18.10;99.90;;;;;;6085169;23;20229;-89
2022/05/25 10:46:47;;;;;;;2.37;0.90;;;17.90;99.90;;;;;;6114670;23;20180;-88
2022/05/25 10:49:23;;;;;;;4.67;0.80;;;18.00;99.90;;;;;;6141821;23;20172;-95
2022/05/25 10:51:57;;;;;;;1.20;0.90;;;18.00;99.90;;;;;;6140079;23;20191;-96
2022/05/25 10:54:47;;;;;;;2.47;1.20;;;18.20;99.90;;;;;;6138480;23;20190;-91
2022/05/25 10:57:40;;;;;;;2.50;0.73;;;18.30;99.90;;;;;;6139705;23;20527;-94
2022/05/25 11:00:19;;;;;;;1.63;0.80;;;18.40;99.90;;;;;;6142021;23;20302;-90
2022/05/25 11:03:58;;;;;;;2.53;0.90;;;18.40;99.90;;;;;;6138370;23;20274;-90
2022/05/25 11:07:00;;;;;;;2.93;0.90;;;18.80;99.90;;;;;;6054894;23;20198;-96
2022/05/25 11:09:42;;;;;;;2.33;0.63;;;18.70;99.90;;;;;;6092097;23;20176;-92
2022/05/25 11:12:26;;;;;;;1.90;0.77;;;18.70;99.90;;;;;;6144387;23;20642;-90
2022/05/25 11:15:09;;;;;;;7.40;1.13;;;18.50;99.90;;;;;;6137136;23;20280;-89
2022/05/25 11:17:57;;;;;;;5.80;1.10;;;18.10;99.90;;;;;;6137379;23;20173;-92
2022/05/25 11:20:37;;;;;;;14.43;1.53;;;17.80;99.90;;;;;;6138418;23;20172;-93
2022/05/25 11:23:52;;;;;;;2.17;0.90;;;17.80;99.90;;;;;;6109986;23;20710;-90
2022/05/25 11:30:03;;;;;;;2.97;0.83;;;18.00;99.90;;;;;;6128963;23;20172;-93
2022/05/25 11:32:57;;;;;;;1.30;0.80;;;18.00;99.90;;;;;;6133819;23;20724;-94
2022/05/25 11:35:52;;;;;;;4.13;1.17;;;18.10;99.90;;;;;;6134261;23;20256;-90
2022/05/25 11:39:02;;;;;;;2.10;0.70;;;18.00;99.90;;;;;;6131411;23;20196;-90
2022/05/25 11:41:38;;;;;;;4.37;0.80;;;18.00;99.90;;;;;;6131300;23;20177;-93
2022/05/25 11:44:49;;;;;;;2.13;0.80;;;18.20;99.90;;;;;;6133863;23;20172;-91
2022/05/25 11:48:08;;;;;;;5.80;1.40;;;18.20;99.90;;;;;;6110599;23;20415;-91
2022/05/25 11:50:49;;;;;;;4.13;1.43;;;18.20;99.90;;;;;;6131967;23;20254;-90
2022/05/25 11:53:48;;;;;;;4.20;1.57;;;18.20;99.90;;;;;;6132680;23;20185;-92
2022/05/25 11:56:35;;;;;;;1.47;0.80;;;18.10;99.90;;;;;;6133805;23;20193;-93
2022/05/25 12:02:19;;;;;;;0.73;0.73;;;17.80;99.90;;;;;;6134317;23;20275;-92
2022/05/25 12:05:06;;;;;;;5.50;1.17;;;17.80;99.90;;;;;;6135813;23;20199;-91
2022/05/25 12:07:50;;;;;;;4.13;1.30;;;17.70;99.90;;;;;;6147992;23;20184;-91
2022/05/25 12:13:35;;;;;;;2.60;1.10;;;18.10;99.90;;;;;;6136123;23;20192;-91
2022/05/25 12:16:18;;;;;;;2.33;1.00;;;18.00;99.90;;;;;;6188346;23;20272;-90
2022/05/25 12:18:54;;;;;;;1.87;1.10;;;18.10;99.90;;;;;;6220498;23;20174;-90
2022/05/25 12:21:44;;;;;;;3.37;1.00;;;18.10;99.90;;;;;;6195118;23;20257;-92
2022/05/25 12:24:27;;;;;;;3.60;0.87;;;18.20;99.90;;;;;;6220557;23;20175;-95
2022/05/25 12:27:00;;;;;;;2.77;1.00;;;18.40;99.90;;;;;;6225962;23;20171;-93
2022/05/25 12:29:47;;;;;;;3.97;1.33;;;18.60;99.90;;;;;;6222187;23;20177;-96
2022/05/25 12:32:21;;;;;;;11.80;1.30;;;18.90;99.90;;;;;;6223487;23;20204;-91
2022/05/25 12:35:25;;;;;;;1.80;0.70;;;18.90;99.90;;;;;;6215425;23;20220;-91
2022/05/25 12:41:30;;;;;;;2.67;1.00;;;18.60;99.90;;;;;;6218752;23;20177;-92
2022/05/25 12:50:46;;;;;;;3.47;1.10;;;18.80;99.90;;;;;;6230710;23;20610;-91
2022/05/25 12:54:06;;;;;;;1.80;0.80;;;18.90;99.90;;;;;;6226910;23;20228;-90
2022/05/25 12:56:45;;;;;;;5.40;0.70;;;18.90;99.90;;;;;;6229189;23;20202;-90
2022/05/25 13:02:26;;;;;;;2.13;1.05;;;18.90;99.90;;;;;;6219475;23;20399;-90
2022/05/25 13:15:13;;;;;;;1.57;1.00;;;18.80;99.90;;;;;;6206841;23;20227;-92
2022/05/25 13:21:33;;;;;;;1.67;0.80;;;19.00;99.90;;;;;;6228332;23;20569;-91
2022/05/25 13:24:55;;;;;;;4.77;1.10;;;18.70;99.90;;;;;;6219693;23;20227;-90
2022/05/25 13:27:46;;;;;;;2.43;1.30;;;18.40;99.90;;;;;;6098819;23;20184;-90
2022/05/25 13:30:31;;;;;;;2.00;1.00;;;18.40;99.90;;;;;;6100882;23;20191;-89
2022/05/25 13:33:17;;;;;;;5.70;0.97;;;18.40;99.90;;;;;;6103675;23;20197;-94
2022/05/25 13:35:49;;;;;;;4.83;0.80;;;18.30;99.90;;;;;;6099574;23;20740;-91
2022/05/25 13:38:29;;;;;;;7.90;1.57;;;18.30;99.90;;;;;;6133661;23;20193;-89
2022/05/25 13:41:10;;;;;;;7.70;1.30;;;18.30;99.90;;;;;;6220257;23;20176;-91
2022/05/25 13:43:56;;;;;;;7.83;0.93;;;18.30;99.90;;;;;;6219953;23;20237;-90
2022/05/25 13:46:41;;;;;;;1.80;0.80;;;18.30;99.90;;;;;;6220065;23;20249;-92
2022/05/25 13:49:18;;;;;;;3.10;1.00;;;18.30;99.90;;;;;;6220949;23;20197;-96
2022/05/25 13:52:17;;;;;;;8.33;1.03;;;18.50;99.90;;;;;;6221335;23;20171;-93
2022/05/25 13:54:49;;;;;;;4.13;1.07;;;18.80;99.90;;;;;;6239325;23;20203;-89
2022/05/25 13:57:35;;;;;;;3.20;0.80;;;19.10;99.90;;;;;;6237984;23;20177;-91
2022/05/25 14:00:22;;;;;;;7.37;1.30;;;19.00;99.90;;;;;;6240925;23;20166;-92
2022/05/25 14:02:54;;;;;;;3.30;1.13;;;18.80;99.90;;;;;;6243035;23;20197;-89
2022/05/25 14:05:31;;;;;;;7.33;1.20;;;18.80;99.90;;;;;;6217008;23;20186;-90
2022/05/25 14:08:18;;;;;;;6.23;1.10;;;18.80;99.90;;;;;;6243290;23;20164;-93
2022/05/25 14:11:02;;;;;;;4.10;1.03;;;18.70;99.90;;;;;;6243312;23;20225;-90
2022/05/25 14:13:44;;;;;;;1.83;0.77;;;18.90;99.90;;;;;;6243104;23;20234;-90
2022/05/25 14:16:14;;;;;;;4.83;1.20;;;18.80;99.90;;;;;;6242544;23;20286;-86
2022/05/25 14:19:05;;;;;;;1.17;0.70;;;18.60;99.90;;;;;;6243718;23;20161;-92
2022/05/25 14:21:58;;;;;;;3.70;0.70;;;18.40;99.90;;;;;;6243300;23;20206;-93
2022/05/25 14:24:34;;;;;;;3.97;1.03;;;18.40;99.90;;;;;;6243339;23;20193;-96
2022/05/25 14:27:29;;;;;;;3.13;1.10;;;18.60;99.90;;;;;;6243417;23;20180;-94
2022/05/25 14:30:06;;;;;;;3.33;0.90;;;18.60;99.90;;;;;;6242957;23;20186;-95
2022/05/25 14:33:06;;;;;;;5.40;1.30;;;18.60;99.90;;;;;;6242264;23;20159;-95
2022/05/25 14:35:39;;;;;;;2.17;0.80;;;18.90;99.90;;;;;;6217361;23;20214;-95
2022/05/25 14:38:09;;;;;;;5.90;0.80;;;19.00;99.90;;;;;;6243885;23;20176;-93
2022/05/25 14:41:02;;;;;;;2.63;0.73;;;18.80;99.90;;;;;;6243655;23;20173;-93
2022/05/25 14:43:51;;;;;;;5.77;1.10;;;18.80;99.90;;;;;;6240179;23;20202;-93
2022/05/25 14:46:34;;;;;;;3.67;1.00;;;18.80;99.90;;;;;;6242507;23;20363;-91
2022/05/25 14:55:33;;;;;;;1.53;0.87;;;18.50;99.90;;;;;;6219889;23;20206;-92
2022/05/25 15:01:13;;;;;;;1.57;0.60;;;18.60;99.90;;;;;;6240821;23;20179;-91
2022/05/25 15:04:00;;;;;;;3.63;1.00;;;18.80;99.90;;;;;;6245545;23;20217;-91
2022/05/25 15:06:30;;;;;;;1.67;0.80;;;19.10;99.90;;;;;;6245101;23;20195;-90
2022/05/25 15:09:08;;;;;;;2.13;0.87;;;19.00;99.90;;;;;;6245346;23;20173;-94
2022/05/25 15:11:45;;;;;;;1.23;0.60;;;19.00;99.90;;;;;;6245399;23;20161;-92
2022/05/25 15:27:10;;;;;;;1.57;0.83;;;18.50;99.90;;;;;;6242400;23;20172;-90
2022/05/25 15:33:22;;;;;;;2.20;0.87;;;18.30;99.90;;;;;;6243184;23;20190;-93
2022/05/25 15:39:26;;;;;;;2.33;0.60;;;17.80;99.90;;;;;;6244721;23;20169;-95
2022/05/25 15:45:10;;;;;;;2.47;0.70;;;17.90;99.90;;;;;;6232471;23;20213;-94
2022/05/25 15:47:40;;;;;;;0.93;0.70;;;17.90;99.90;;;;;;6242955;23;20163;-89
2022/05/25 15:50:17;;;;;;;5.43;1.07;;;18.00;99.90;;;;;;6244675;23;20170;-93
2022/05/25 15:52:44;;;;;;;2.13;0.77;;;17.90;99.90;;;;;;6244126;23;20162;-94
2022/05/25 15:55:17;;;;;;;1.40;0.90;;;17.70;99.90;;;;;;6244542;23;20178;-95
2022/05/25 15:57:51;;;;;;;2.10;1.00;;;17.60;99.90;;;;;;6245031;23;20165;-96
2022/05/25 16:00:38;;;;;;;3.13;0.73;;;17.60;99.90;;;;;;6244646;23;20166;-92
2022/05/25 16:09:27;;;;;;;3.53;0.90;;;17.50;99.90;;;;;;6239368;23;20192;-96
2022/05/25 16:12:06;;;;;;;1.37;1.20;;;17.70;99.90;;;;;;6244879;23;20212;-96
2022/05/25 16:14:34;;;;;;;8.97;0.97;;;17.50;99.90;;;;;;6243716;23;20204;-93
2022/05/25 16:35:27;;;;;;;2.07;0.70;;;17.10;99.90;;;;;;6222440;23;20242;-81
2022/05/25 16:37:54;;;;;;;2.30;0.80;;;17.00;99.90;;;;;;6199081;23;20181;-81
2022/05/25 16:40:21;;;;;;;2.87;0.70;;;17.00;99.90;;;;;;6223581;23;20244;-80
2022/05/25 16:42:48;;;;;;;1.77;0.80;;;17.00;99.90;;;;;;6222873;23;20195;-80
2022/05/25 16:45:17;;;;;;;2.65;0.95;;;17.10;99.90;;;;;;6220290;23;20387;-80
2022/05/25 16:47:44;;;;;;;4.57;0.83;;;17.20;99.90;;;;;;6222455;23;20166;-80
2022/05/25 16:53:11;;;;;;;3.13;0.90;;;17.10;99.90;;;;;;6231682;23;20249;-89
2022/05/25 16:59:09;;;;;;;4.43;1.20;;;17.10;99.90;;;;;;6238191;23;20167;-93
2022/05/25 17:43:13;;;;;;;2.72;1.20;;;16.70;99.90;;;;;;6206262;22;20393;-96
2022/05/25 18:22:43;;;;;;;1.13;0.70;;;16.20;99.90;;;;;;6196669;23;20209;-81
2022/05/25 18:25:21;;;;;;;3.87;0.97;;;16.20;99.90;;;;;;6231116;23;20217;-80
2022/05/25 18:27:54;;;;;;;2.23;1.00;;;16.20;99.90;;;;;;6230075;23;20198;-82